Terminal Aerodrome Forecast
Issued by NWS

Home | Current Version | Previous Version | Text Only | Print | Product List | Glossary Off
Versions: 1 2 3 4 5 6 7 8 9 10 11 12 13 14 15 16

000
FTUS43 KMPX 281120
TAFAXN
TAF
KAXN 281120Z 2812/2912 15014KT P6SM -TSRA SCT025 BKN050CB OVC100
      TEMPO 2812/2813 2SM TSRA OVC020CB
     FM281300 16015G23KT 5SM -SHRA BR OVC020
     FM281600 19014G21KT P6SM VCSH SCT020 OVC035
     FM282100 25016G25KT P6SM BKN040
     FM290300 26015G22KT P6SM SCT250=

USA.gov is the U.S. government's official web portal to all federal, state and local government web resources and services.